createdAt,value
2023-03-05T00:02:32.149Z,40.42
2023-03-05T00:07:33.592Z,30.90
2023-03-05T00:12:35.111Z,33.67
2023-03-05T00:17:36.559Z,33.53
2023-03-05T00:22:37.989Z,34.92
2023-03-05T00:27:39.609Z,35.63
2023-03-05T00:32:41.074Z,31.75
2023-03-05T00:37:42.795Z,35.72
2023-03-05T00:42:44.253Z,34.50
2023-03-05T00:47:45.727Z,30.00
2023-03-05T00:52:47.183Z,31.70
2023-03-05T00:57:48.602Z,29.88
2023-03-05T01:02:50.124Z,31.13
2023-03-05T01:07:55.923Z,39.10
2023-03-05T01:12:57.578Z,41.85
2023-03-05T01:17:59.036Z,29.40
2023-03-05T01:23:01.705Z,27.98
2023-03-05T01:28:03.713Z,35.30
2023-03-05T01:33:05.172Z,31.25
2023-03-05T01:38:07.271Z,21.70
2023-03-05T01:43:11.393Z,26.67
2023-03-05T01:48:12.855Z,31.17
2023-03-05T01:53:14.351Z,35.63
2023-03-05T01:58:15.812Z,26.13
2023-03-05T02:03:17.437Z,32.30
2023-03-05T02:08:22.112Z,26.98
2023-03-05T02:13:27.270Z,27.50
2023-03-05T02:18:28.805Z,25.35
2023-03-05T02:23:36.585Z,31.80
2023-03-05T02:28:51.952Z,29.20
2023-03-05T02:33:54.094Z,28.92
2023-03-05T02:38:57.392Z,31.10
2023-03-05T02:43:58.862Z,30.13
2023-03-05T02:49:00.698Z,29.40
2023-03-05T02:54:02.146Z,24.27
2023-03-05T02:59:03.907Z,32.50
2023-03-05T03:04:05.726Z,27.55
2023-03-05T03:09:07.195Z,29.58
2023-03-05T03:14:08.835Z,26.88
2023-03-05T03:19:10.302Z,26.65
2023-03-05T03:24:11.750Z,23.02
2023-03-05T03:29:13.147Z,35.83
2023-03-05T03:34:15.864Z,30.88
2023-03-05T03:39:17.617Z,29.63
2023-03-05T03:44:20.787Z,33.65
2023-03-05T03:49:25.141Z,29.83
2023-03-05T03:54:26.597Z,41.55
2023-03-05T03:59:28.172Z,41.20
2023-03-05T04:04:30.354Z,32.00
2023-03-05T04:09:31.825Z,37.72
2023-03-05T04:14:33.324Z,36.22
2023-03-05T04:19:36.835Z,43.10
2023-03-05T04:24:38.765Z,34.25
2023-03-05T04:29:40.168Z,37.10
2023-03-05T04:34:41.614Z,37.50
2023-03-05T04:39:43.726Z,32.92
2023-03-05T04:44:45.360Z,36.17
2023-03-05T04:49:46.930Z,30.70
2023-03-05T04:54:48.440Z,30.30
2023-03-05T04:59:49.904Z,33.38
2023-03-05T05:04:54.722Z,35.92
2023-03-05T05:09:56.135Z,36.47
2023-03-05T05:14:58.027Z,42.60
2023-03-05T05:20:00.572Z,36.60
2023-03-05T05:25:02.139Z,32.80
2023-03-05T05:30:04.519Z,38.80
2023-03-05T05:35:06.484Z,30.38
2023-03-05T05:40:09.522Z,33.13
2023-03-05T05:45:12.058Z,30.33
2023-03-05T05:50:14.481Z,39.63
2023-03-05T05:55:16.084Z,38.45
2023-03-05T06:00:17.913Z,36.38
2023-03-05T06:05:19.509Z,32.72
2023-03-05T06:10:20.999Z,24.33
2023-03-05T06:15:22.421Z,34.13
2023-03-05T06:20:23.946Z,36.63
2023-03-05T06:25:25.373Z,39.25
2023-03-05T06:30:26.846Z,34.03
2023-03-05T06:35:28.333Z,33.08
2023-03-05T06:40:29.793Z,45.60
2023-03-05T06:45:31.347Z,44.85
2023-03-05T06:50:36.550Z,41.75
2023-03-05T06:55:39.752Z,39.88
2023-03-05T07:00:41.514Z,44.30
2023-03-05T07:05:43.699Z,43.30
2023-03-05T07:10:45.201Z,40.17
2023-03-05T07:15:46.613Z,42.83
2023-03-05T07:20:48.115Z,44.60
2023-03-05T07:25:49.497Z,37.50
2023-03-05T07:31:05.554Z,39.05
2023-03-05T07:36:11.514Z,39.22
2023-03-05T07:41:19.641Z,41.58
2023-03-05T07:46:24.750Z,38.05
2023-03-05T07:51:27.316Z,37.55
2023-03-05T07:56:35.287Z,39.65
2023-03-05T08:01:37.380Z,37.60
2023-03-05T08:06:40.963Z,54.10
2023-03-05T08:11:42.804Z,43.03
2023-03-05T08:16:46.313Z,43.28
2023-03-05T08:21:48.665Z,46.38
2023-03-05T08:26:50.080Z,47.03
2023-03-05T08:31:53.614Z,48.35
2023-03-05T08:36:55.204Z,46.92
2023-03-05T08:41:56.761Z,47.78
2023-03-05T08:46:58.212Z,41.95
2023-03-05T08:51:59.672Z,41.30
2023-03-05T08:57:01.446Z,42.85
2023-03-05T09:02:04.361Z,49.10
2023-03-05T09:07:06.001Z,41.80
2023-03-05T09:12:07.725Z,44.35
2023-03-05T09:17:09.325Z,39.45
2023-03-05T09:22:10.736Z,36.20
2023-03-05T09:27:12.805Z,43.55
2023-03-05T09:32:14.394Z,53.38
2023-03-05T09:37:15.877Z,37.35
2023-03-05T09:42:41.716Z,43.15
2023-03-05T09:48:06.478Z,33.92
2023-03-05T09:53:21.805Z,51.47
2023-03-05T09:58:33.884Z,43.83
2023-03-05T10:03:58.031Z,32.72
2023-03-05T10:09:28.330Z,37.67
2023-03-05T10:14:35.627Z,41.30
2023-03-05T10:19:51.699Z,35.60
2023-03-05T10:25:05.366Z,39.10
2023-03-05T10:30:29.196Z,40.70
2023-03-05T10:35:45.472Z,33.70
2023-03-05T10:40:51.241Z,29.65
2023-03-05T10:45:54.023Z,34.90
2023-03-05T10:51:13.479Z,39.00
2023-03-05T10:56:15.880Z,33.30
2023-03-05T11:01:24.316Z,33.03
2023-03-05T11:06:41.832Z,29.65
2023-03-05T11:11:43.618Z,34.60
2023-03-05T11:16:50.887Z,32.45
2023-03-05T11:22:20.528Z,27.42
2023-03-05T11:27:43.081Z,33.55
2023-03-05T11:32:44.557Z,28.30
2023-03-05T11:38:00.758Z,31.73
2023-03-05T11:43:03.964Z,27.98
2023-03-05T11:48:28.385Z,27.88
2023-03-05T11:53:35.895Z,30.05
2023-03-05T11:59:04.682Z,28.98
2023-03-05T12:04:08.536Z,31.33
2023-03-05T12:09:18.675Z,31.38
2023-03-05T12:14:28.771Z,26.88
2023-03-05T12:19:39.380Z,26.92
2023-03-05T12:24:41.182Z,24.38
2023-03-05T12:29:49.241Z,26.15
2023-03-05T12:35:26.107Z,30.65
2023-03-05T12:40:29.015Z,27.38
2023-03-05T12:45:36.412Z,25.88
2023-03-05T12:50:37.745Z,24.20
2023-03-05T12:55:48.289Z,29.95
2023-03-05T13:05:58.811Z,33.20
2023-03-05T13:11:01.232Z,27.27
2023-03-05T13:16:03.842Z,21.95
2023-03-05T13:21:08.137Z,28.80
2023-03-05T13:26:15.475Z,28.58
2023-03-05T13:31:19.329Z,32.10
2023-03-05T13:36:24.032Z,34.45
2023-03-05T13:41:27.738Z,34.25
2023-03-05T13:46:39.229Z,29.73
2023-03-05T13:51:42.789Z,31.80
2023-03-05T13:57:00.200Z,33.35
2023-03-05T14:02:05.848Z,37.67
2023-03-05T14:07:24.444Z,32.45
2023-03-05T14:12:35.637Z,27.52
2023-03-05T14:17:43.688Z,29.83
2023-03-05T14:22:48.443Z,26.88
2023-03-05T14:27:49.902Z,22.40
2023-03-05T14:32:55.474Z,24.88
2023-03-05T14:37:59.270Z,29.30
2023-03-05T14:43:10.796Z,26.20
2023-03-05T14:48:15.145Z,25.55
2023-03-05T14:53:38.637Z,27.75
2023-03-05T14:58:40.174Z,29.73
2023-03-05T15:03:41.666Z,32.05
2023-03-05T15:08:43.200Z,27.77
2023-03-05T15:13:44.658Z,28.75
2023-03-05T15:18:46.209Z,31.02
2023-03-05T15:23:47.651Z,36.97
2023-03-05T15:28:49.861Z,44.88
2023-03-05T15:33:51.289Z,37.78
2023-03-05T15:38:52.676Z,63.22
2023-03-05T15:43:54.106Z,72.28
2023-03-05T15:48:55.520Z,66.13
2023-03-05T15:53:57.919Z,29.45
2023-03-05T15:58:59.831Z,34.35
2023-03-05T16:04:01.726Z,32.30
2023-03-05T16:09:04.909Z,29.42
2023-03-05T16:14:09.755Z,24.83
2023-03-05T16:19:15.743Z,27.98
2023-03-05T16:24:17.670Z,27.45
2023-03-05T16:29:19.264Z,37.13
2023-03-05T16:34:20.850Z,29.58
2023-03-05T16:39:22.608Z,24.92
2023-03-05T16:44:24.036Z,28.98
2023-03-05T16:49:25.527Z,33.75
2023-03-05T16:54:27.183Z,34.80
2023-03-05T16:59:29.578Z,26.42
2023-03-05T17:04:31.119Z,40.78
2023-03-05T17:09:32.940Z,33.13
2023-03-05T17:14:34.480Z,32.50
2023-03-05T17:19:35.994Z,60.22
2023-03-05T17:24:38.379Z,46.10
2023-03-05T17:29:39.892Z,87.72
2023-03-05T17:34:41.645Z,81.82
2023-03-05T17:39:43.261Z,49.75
2023-03-05T17:44:44.696Z,41.03
2023-03-05T17:49:46.128Z,37.67
2023-03-05T17:54:48.925Z,40.65
2023-03-05T17:59:50.438Z,36.13
2023-03-05T18:04:52.144Z,33.78
2023-03-05T18:09:53.541Z,45.50
2023-03-05T18:14:54.919Z,34.92
2023-03-05T18:19:56.691Z,40.22
2023-03-05T18:24:58.182Z,32.90
2023-03-05T18:29:59.584Z,33.80
2023-03-05T18:35:01.024Z,36.25
2023-03-05T18:40:03.165Z,32.72
2023-03-05T18:45:06.436Z,28.73
2023-03-05T18:50:14.690Z,36.17
2023-03-05T18:55:20.284Z,30.55
2023-03-05T19:00:25.334Z,33.25
2023-03-05T19:05:26.943Z,34.92
2023-03-05T19:10:28.475Z,53.80
2023-03-05T19:15:29.925Z,58.67
2023-03-05T19:20:31.444Z,46.28
2023-03-05T19:25:33.400Z,43.28
2023-03-05T19:30:35.947Z,41.50
2023-03-05T19:35:37.669Z,50.60
2023-03-05T19:40:41.477Z,50.00
2023-03-05T19:45:43.176Z,37.35
2023-03-05T19:50:44.564Z,37.60
2023-03-05T19:55:45.952Z,38.70
2023-03-05T20:00:47.500Z,36.83
2023-03-05T20:05:48.919Z,33.90
2023-03-05T20:10:50.373Z,30.85
2023-03-05T20:15:52.676Z,26.50
2023-03-05T20:20:57.766Z,23.45
2023-03-05T20:25:59.638Z,24.20
2023-03-05T20:31:02.140Z,20.38
2023-03-05T20:36:04.353Z,24.42
2023-03-05T20:41:10.138Z,20.75
2023-03-05T20:46:19.020Z,19.80
2023-03-05T20:51:26.244Z,20.58
2023-03-05T20:56:29.198Z,24.45
2023-03-05T21:01:33.028Z,21.73
2023-03-05T21:06:34.884Z,23.58
2023-03-05T21:11:37.256Z,17.95
2023-03-05T21:16:38.921Z,21.35
2023-03-05T21:21:44.702Z,18.90
2023-03-05T21:26:46.539Z,18.10
2023-03-05T21:31:48.052Z,22.38
2023-03-05T21:36:49.480Z,19.27
2023-03-05T21:41:50.969Z,21.52
2023-03-05T21:46:52.407Z,22.73
2023-03-05T21:52:08.980Z,21.48
2023-03-05T21:57:11.507Z,23.92
2023-03-05T22:02:14.095Z,23.23
2023-03-05T22:07:16.753Z,17.85
2023-03-05T22:12:26.785Z,19.27
2023-03-05T22:17:28.170Z,16.55
2023-03-05T22:22:29.673Z,17.88
2023-03-05T22:27:31.137Z,17.35
2023-03-05T22:32:34.988Z,15.40
2023-03-05T22:37:36.390Z,20.05
2023-03-05T22:42:37.789Z,14.30
2023-03-05T22:47:39.171Z,14.65
2023-03-05T22:52:40.604Z,13.75
2023-03-05T22:57:43.691Z,20.30
2023-03-05T23:02:45.130Z,15.80
2023-03-05T23:07:46.649Z,12.02
2023-03-05T23:12:50.718Z,13.02
2023-03-05T23:17:52.300Z,17.48
2023-03-05T23:22:55.932Z,13.98
2023-03-05T23:27:58.633Z,16.23
2023-03-05T23:33:07.721Z,15.05
2023-03-05T23:38:12.572Z,14.07
2023-03-05T23:43:15.496Z,14.05
2023-03-05T23:48:17.895Z,17.25
2023-03-05T23:53:25.544Z,20.50
2023-03-05T23:58:27.044Z,19.15
